| Date | Time | Temp. (oF) | Dew Point (oF) | Rel. Hum. (%) | Press. (in.) | Wind Dir. | Wind Speed (mph) | Hourly Rainfall (in.) |
|
|---|---|---|---|---|---|---|---|---|---|
| 1 | 11/01 | 00:00 | 44 | 40 | 88 | 30.15 | SSE | 0 | 0.00 |
| 2 | 10/31 | 23:00 | 45 | 40 | 85 | 30.16 | SSE | 0 | 0.00 |
| 3 | 10/31 | 22:00 | 47 | 42 | 83 | 30.17 | SSE | 0 | 0.00 |
| 4 | 10/31 | 21:00 | 50 | 42 | 76 | 30.18 | SSE | 0 | 0.00 |
| 5 | 10/31 | 20:00 | 52 | 42 | 69 | 30.17 | SSE | 0 | 0.00 |
| 6 | 10/31 | 19:00 | 55 | 40 | 59 | 30.17 | SSE | 0 | 0.00 |
| 7 | 10/31 | 18:00 | 61 | 41 | 49 | 30.16 | S | 0 | 0.00 |
| 8 | 10/31 | 17:00 | 67 | 40 | 38 | 30.14 | SSW | 3 | 0.00 |
| 9 | 10/31 | 16:00 | 71 | 40 | 33 | 30.13 | SW | 3 | 0.00 |
| 10 | 10/31 | 15:00 | 71 | 37 | 30 | 30.15 | S | 6 | 0.00 |
| 11 | 10/31 | 14:00 | 71 | 39 | 32 | 30.16 | W | 4 | 0.00 |
| 12 | 10/31 | 13:00 | 70 | 42 | 37 | 30.20 | SW | 6 | 0.00 |
| 13 | 10/31 | 12:00 | 68 | 41 | 38 | 30.23 | W | 8 | 0.00 |
| 14 | 10/31 | 11:00 | 62 | 45 | 54 | 30.26 | SSE | 0 | 0.00 |
| 15 | 10/31 | 10:00 | 53 | 48 | 84 | 30.28 | ENE | 0 | 0.00 |
| 16 | 10/31 | 09:00 | 44 | 44 | 100 | 30.29 | SE | 0 | 0.00 |
| 17 | 10/31 | 08:00 | 36 | 36 | 100 | 30.31 | WNW | 0 | 0.00 |
| 18 | 10/31 | 08:55 | 34 | 33 | 100 | 30.31 | WNW | 0 | 0.00 |
| 19 | miss | miss | miss | miss | miss | miss | miss | miss | |
| 20 | 10/31 | 08:53 | 34 | 33 | 100 | 30.30 | WNW | 0 | 0.00 |
| 21 | miss | miss | miss | miss | miss | miss | miss | miss | |
| 22 | 10/31 | 08:51 | 34 | 33 | 100 | 30.30 | WNW | 0 | 0.00 |
| 23 | miss | miss | miss | miss | miss | miss | miss | miss | |
| 24 | 10/31 | 08:49 | 33 | 32 | 100 | 30.31 | WNW | 0 | 0.00 |
| 25 | miss | miss | miss | miss | miss | miss | miss | miss | |
| 26 | 10/31 | 08:48 | 33 | 32 | 100 | 30.31 | WNW | 0 | 0.00 |
| 27 | miss | miss | miss | miss | miss | miss | miss | miss | |
| 28 | 10/31 | 08:48 | 33 | 32 | 100 | 30.31 | WNW | 0 | 0.00 |
| 29 | miss | miss | miss | miss | miss | miss | miss | miss | |
| 30 | 10/31 | 08:48 | 33 | 32 | 100 | 30.31 | WNW | 0 | 0.00 |
| 31 | miss | miss | miss | miss | miss | miss | miss | miss | |
| 32 | 10/31 | 08:48 | 33 | 32 | 100 | 30.31 | WNW | 0 | 0.00 |
| 33 | miss | miss | miss | miss | miss | miss | miss | miss | |
| 34 | 10/31 | 08:48 | 33 | 32 | 100 | 30.31 | WNW | 0 | 0.00 |
| 35 | miss | miss | miss | miss | miss | miss | miss | miss | |
| 36 | 10/31 | 08:48 | 33 | 32 | 100 | 30.31 | WNW | 0 | 0.00 |
| 37 | miss | miss | miss | miss | miss | miss | miss | miss | |
| 38 | 10/31 | 08:48 | 33 | 32 | 100 | 30.31 | WNW | 0 | 0.00 |
| 39 | miss | miss | miss | miss | miss | miss | miss | miss | |
| 40 | 10/31 | 08:48 | 33 | 32 | 100 | 30.31 | WNW | 0 | 0.00 |
| 41 | 10/31 | 08:00 | 31 | 31 | 100 | 30.29 | NW | 0 | 0.00 |
| 42 | 10/31 | 07:00 | 32 | 31 | 99 | 30.29 | NNW | 0 | 0.00 |
| 43 | 10/31 | 06:00 | 32 | 31 | 99 | 30.29 | NNW | 0 | 0.00 |
| 44 | 10/31 | 05:00 | 33 | 32 | 98 | 30.28 | NNW | 0 | 0.00 |
| 45 | 10/31 | 04:00 | 34 | 33 | 97 | 30.28 | NNW | 0 | 0.00 |
| 46 | 10/31 | 03:00 | 35 | 33 | 96 | 30.28 | NNW | 0 | 0.00 |
| 47 | 10/31 | 02:00 | 36 | 34 | 94 | 30.28 | NNW | 0 | 0.00 |
| 48 | 10/31 | 01:00 | 38 | 35 | 92 | 30.29 | NNW | 0 | 0.00 |
| 49 | 10/31 | 00:00 | 40 | 37 | 89 | 30.29 | WSW | 0 | 0.00 |
| 50 | 10/30 | 23:00 | 41 | 37 | 87 | 30.29 | SW | 0 | 0.00 |
| 51 | 10/30 | 22:00 | 44 | 38 | 81 | 30.28 | SW | 2 | 0.00 |
| 52 | 10/30 | 21:00 | 48 | 39 | 72 | 30.27 | SW | 0 | 0.00 |
| 53 | 10/30 | 20:00 | 51 | 40 | 67 | 30.27 | SSE | 0 | 0.00 |
| 54 | 10/30 | 19:00 | 57 | 39 | 52 | 30.26 | NW | 1 | 0.00 |
| 55 | 10/30 | 18:00 | 63 | 38 | 41 | 30.25 | WSW | 2 | 0.00 |
| 56 | 10/30 | 17:00 | 65 | 38 | 38 | 30.24 | WNW | 4 | 0.00 |
| 57 | 10/30 | 16:00 | 65 | 41 | 42 | 30.24 | WSW | 5 | 0.00 |
| 58 | 10/30 | 15:00 | 64 | 39 | 40 | 30.25 | WSW | 7 | 0.00 |
| 59 | 10/30 | 14:00 | 63 | 42 | 47 | 30.25 | WNW | 10 | 0.00 |
| 60 | 10/30 | 13:00 | 60 | 41 | 50 | 30.28 | NW | 9 | 0.00 |
| 61 | 10/30 | 12:00 | 58 | 43 | 58 | 30.31 | WSW | 9 | 0.00 |
| 62 | 10/30 | 11:00 | 55 | 43 | 65 | 30.31 | W | 5 | 0.00 |
| 63 | 10/30 | 10:00 | 51 | 41 | 69 | 30.32 | NW | 8 | 0.00 |
| 64 | 10/30 | 09:00 | 46 | 38 | 75 | 30.32 | W | 3 | 0.00 |
| 65 | 10/30 | 08:00 | 43 | 36 | 78 | 30.30 | W | 4 | 0.00 |
| 66 | 10/30 | 07:00 | 41 | 34 | 79 | 30.27 | W | 2 | 0.00 |
| 67 | 10/30 | 06:00 | 39 | 34 | 84 | 30.26 | W | 4 | 0.00 |
| 68 | 10/30 | 05:00 | 40 | 34 | 82 | 30.26 | W | 2 | 0.00 |
| 69 | 10/30 | 04:00 | 42 | 35 | 77 | 30.25 | WSW | 2 | 0.00 |
| 70 | 10/30 | 03:00 | 42 | 36 | 80 | 30.25 | W | 3 | 0.00 |
| 71 | 10/30 | 02:00 | 42 | 35 | 79 | 30.23 | SW | 1 | 0.00 |
| 72 | 10/30 | 01:00 | 43 | 36 | 78 | 30.22 | SSW | 2 | 0.00 |